sensor_id;sensor_type;location;lat;lon;timestamp;temperature;humidity
24232;DHT22;12364;47.810;8.810;2023-05-20T04:32:41;16.80;95.20
24232;DHT22;12364;47.810;8.810;2023-05-20T04:35:08;16.80;95.20
24232;DHT22;12364;47.810;8.810;2023-05-20T04:37:38;16.80;95.20
24232;DHT22;12364;47.810;8.810;2023-05-20T04:40:05;16.80;95.30
24232;DHT22;12364;47.810;8.810;2023-05-20T04:42:32;16.80;95.30
24232;DHT22;12364;47.810;8.810;2023-05-20T04:44:59;16.80;95.30
24232;DHT22;12364;47.810;8.810;2023-05-20T04:47:27;16.80;95.60
24232;DHT22;12364;47.810;8.810;2023-05-20T04:49:56;16.80;95.40
24232;DHT22;12364;47.810;8.810;2023-05-20T04:52:23;16.80;95.40
24232;DHT22;12364;47.810;8.810;2023-05-20T04:54:51;16.80;95.50
24232;DHT22;12364;47.810;8.810;2023-05-20T04:57:18;16.80;95.80
24232;DHT22;12364;47.810;8.810;2023-05-20T04:59:46;16.80;95.50
24232;DHT22;12364;47.810;8.810;2023-05-20T05:02:13;16.90;95.60
24232;DHT22;12364;47.810;8.810;2023-05-20T05:04:40;16.90;95.60
24232;DHT22;12364;47.810;8.810;2023-05-20T05:07:07;16.90;95.60
24232;DHT22;12364;47.810;8.810;2023-05-20T05:09:34;16.90;95.60
24232;DHT22;12364;47.810;8.810;2023-05-20T05:12:02;17.00;95.60
24232;DHT22;12364;47.810;8.810;2023-05-20T05:14:29;16.90;95.60
24232;DHT22;12364;47.810;8.810;2023-05-20T05:16:56;16.90;95.50
24232;DHT22;12364;47.810;8.810;2023-05-20T05:19:23;17.00;95.60
24232;DHT22;12364;47.810;8.810;2023-05-20T05:21:50;17.00;95.60
24232;DHT22;12364;47.810;8.810;2023-05-20T05:24:17;17.00;95.70
24232;DHT22;12364;47.810;8.810;2023-05-20T05:26:44;17.00;95.70
24232;DHT22;12364;47.810;8.810;2023-05-20T05:29:11;17.00;95.70
24232;DHT22;12364;47.810;8.810;2023-05-20T05:31:38;17.10;95.70
24232;DHT22;12364;47.810;8.810;2023-05-20T05:34:05;17.10;95.60
24232;DHT22;12364;47.810;8.810;2023-05-20T05:36:32;17.10;95.70
24232;DHT22;12364;47.810;8.810;2023-05-20T05:38:59;17.10;95.80
24232;DHT22;12364;47.810;8.810;2023-05-20T05:41:26;17.30;95.90
24232;DHT22;12364;47.810;8.810;2023-05-20T05:43:54;17.10;95.80
24232;DHT22;12364;47.810;8.810;2023-05-20T05:46:21;17.10;95.90
24232;DHT22;12364;47.810;8.810;2023-05-20T05:48:48;17.10;95.90
24232;DHT22;12364;47.810;8.810;2023-05-20T05:51:16;17.10;95.90
24232;DHT22;12364;47.810;8.810;2023-05-20T05:53:43;17.00;96.00
24232;DHT22;12364;47.810;8.810;2023-05-20T05:56:10;17.10;96.00
24232;DHT22;12364;47.810;8.810;2023-05-20T05:58:37;17.00;96.00
24232;DHT22;12364;47.810;8.810;2023-05-20T06:01:04;17.00;96.10
24232;DHT22;12364;47.810;8.810;2023-05-20T06:03:31;17.10;96.10
24232;DHT22;12364;47.810;8.810;2023-05-20T06:05:59;17.10;96.10
24232;DHT22;12364;47.810;8.810;2023-05-20T06:08:26;17.00;96.10
24232;DHT22;12364;47.810;8.810;2023-05-20T06:10:53;17.00;96.20
24232;DHT22;12364;47.810;8.810;2023-05-20T06:13:20;17.00;96.20
24232;DHT22;12364;47.810;8.810;2023-05-20T06:15:48;17.00;96.30
24232;DHT22;12364;47.810;8.810;2023-05-20T06:18:15;17.10;96.30
24232;DHT22;12364;47.810;8.810;2023-05-20T06:20:42;17.10;96.20
24232;DHT22;12364;47.810;8.810;2023-05-20T06:23:09;17.10;96.30
24232;DHT22;12364;47.810;8.810;2023-05-20T06:25:36;17.10;96.50
24232;DHT22;12364;47.810;8.810;2023-05-20T06:28:03;17.20;96.30
24232;DHT22;12364;47.810;8.810;2023-05-20T06:30:30;17.20;96.20
24232;DHT22;12364;47.810;8.810;2023-05-20T06:32:57;17.20;96.30
24232;DHT22;12364;47.810;8.810;2023-05-20T06:35:24;17.20;96.30
24232;DHT22;12364;47.810;8.810;2023-05-20T06:37:51;17.30;96.30
24232;DHT22;12364;47.810;8.810;2023-05-20T06:40:18;17.30;96.20
24232;DHT22;12364;47.810;8.810;2023-05-20T06:42:45;17.30;96.20
24232;DHT22;12364;47.810;8.810;2023-05-20T06:45:12;17.20;96.30
24232;DHT22;12364;47.810;8.810;2023-05-20T06:47:39;17.20;96.40
24232;DHT22;12364;47.810;8.810;2023-05-20T06:50:06;17.20;96.50
24232;DHT22;12364;47.810;8.810;2023-05-20T06:52:34;17.20;96.30
24232;DHT22;12364;47.810;8.810;2023-05-20T06:55:01;17.20;96.30
24232;DHT22;12364;47.810;8.810;2023-05-20T06:57:29;17.30;96.30
24232;DHT22;12364;47.810;8.810;2023-05-20T06:59:56;17.50;96.40
24232;DHT22;12364;47.810;8.810;2023-05-20T07:02:23;17.20;96.30
24232;DHT22;12364;47.810;8.810;2023-05-20T07:04:50;17.20;96.40
24232;DHT22;12364;47.810;8.810;2023-05-20T07:07:17;17.20;96.50
24232;DHT22;12364;47.810;8.810;2023-05-20T07:09:44;17.20;96.60
24232;DHT22;12364;47.810;8.810;2023-05-20T07:12:12;17.30;96.60
24232;DHT22;12364;47.810;8.810;2023-05-20T07:14:39;17.30;96.30
24232;DHT22;12364;47.810;8.810;2023-05-20T07:17:06;17.20;96.50
24232;DHT22;12364;47.810;8.810;2023-05-20T07:19:33;17.20;96.70
24232;DHT22;12364;47.810;8.810;2023-05-20T07:22:00;17.30;96.60
24232;DHT22;12364;47.810;8.810;2023-05-20T07:24:27;17.30;96.50
24232;DHT22;12364;47.810;8.810;2023-05-20T07:26:54;17.30;96.50
24232;DHT22;12364;47.810;8.810;2023-05-20T07:29:22;17.30;96.60
24232;DHT22;12364;47.810;8.810;2023-05-20T07:31:49;17.30;96.70
24232;DHT22;12364;47.810;8.810;2023-05-20T07:34:16;17.30;96.60
24232;DHT22;12364;47.810;8.810;2023-05-20T07:36:43;17.20;96.70
24232;DHT22;12364;47.810;8.810;2023-05-20T07:39:10;17.30;96.90
24232;DHT22;12364;47.810;8.810;2023-05-20T07:41:41;17.30;96.70
24232;DHT22;12364;47.810;8.810;2023-05-20T07:44:08;17.20;96.50
24232;DHT22;12364;47.810;8.810;2023-05-20T07:46:37;17.20;96.60
24232;DHT22;12364;47.810;8.810;2023-05-20T07:49:04;17.20;96.70
24232;DHT22;12364;47.810;8.810;2023-05-20T07:51:31;17.20;96.70
24232;DHT22;12364;47.810;8.810;2023-05-20T07:53:58;17.10;96.60
24232;DHT22;12364;47.810;8.810;2023-05-20T07:56:25;17.10;96.60
24232;DHT22;12364;47.810;8.810;2023-05-20T07:58:53;17.10;96.60
24232;DHT22;12364;47.810;8.810;2023-05-20T08:01:20;17.10;96.60
24232;DHT22;12364;47.810;8.810;2023-05-20T08:03:47;17.10;96.50
24232;DHT22;12364;47.810;8.810;2023-05-20T08:06:15;17.20;96.70
24232;DHT22;12364;47.810;8.810;2023-05-20T08:08:42;17.20;96.70
24232;DHT22;12364;47.810;8.810;2023-05-20T08:11:09;17.20;96.60
24232;DHT22;12364;47.810;8.810;2023-05-20T08:13:36;17.20;96.60
24232;DHT22;12364;47.810;8.810;2023-05-20T08:16:04;17.20;96.60
24232;DHT22;12364;47.810;8.810;2023-05-20T08:18:33;17.20;96.50
24232;DHT22;12364;47.810;8.810;2023-05-20T08:21:00;17.20;96.60
24232;DHT22;12364;47.810;8.810;2023-05-20T08:23:28;17.20;96.40
24232;DHT22;12364;47.810;8.810;2023-05-20T08:25:55;17.30;96.60
24232;DHT22;12364;47.810;8.810;2023-05-20T08:28:23;17.30;96.50
24232;DHT22;12364;47.810;8.810;2023-05-20T08:30:50;17.30;96.50
24232;DHT22;12364;47.810;8.810;2023-05-20T08:33:17;17.50;96.40
24232;DHT22;12364;47.810;8.810;2023-05-20T08:35:45;17.40;96.50
24232;DHT22;12364;47.810;8.810;2023-05-20T08:38:12;17.40;96.50
24232;DHT22;12364;47.810;8.810;2023-05-20T08:40:39;17.50;96.30
24232;DHT22;12364;47.810;8.810;2023-05-20T08:43:06;17.50;96.20
24232;DHT22;12364;47.810;8.810;2023-05-20T08:45:34;17.50;96.10
24232;DHT22;12364;47.810;8.810;2023-05-20T08:48:02;17.50;96.20
24232;DHT22;12364;47.810;8.810;2023-05-20T08:50:33;17.50;96.20
24232;DHT22;12364;47.810;8.810;2023-05-20T08:53:00;17.50;96.30
24232;DHT22;12364;47.810;8.810;2023-05-20T08:55:41;17.50;96.20
24232;DHT22;12364;47.810;8.810;2023-05-20T08:58:08;17.50;96.10
24232;DHT22;12364;47.810;8.810;2023-05-20T09:00:35;17.40;96.30
24232;DHT22;12364;47.810;8.810;2023-05-20T09:03:03;17.40;96.40
24232;DHT22;12364;47.810;8.810;2023-05-20T09:05:31;17.40;96.30
24232;DHT22;12364;47.810;8.810;2023-05-20T09:08:05;17.40;96.40
24232;DHT22;12364;47.810;8.810;2023-05-20T09:10:33;17.40;96.20
24232;DHT22;12364;47.810;8.810;2023-05-20T09:13:00;17.40;96.10
24232;DHT22;12364;47.810;8.810;2023-05-20T09:15:29;17.40;96.30
24232;DHT22;12364;47.810;8.810;2023-05-20T09:17:58;17.50;96.30
24232;DHT22;12364;47.810;8.810;2023-05-20T09:20:25;17.40;96.30
24232;DHT22;12364;47.810;8.810;2023-05-20T09:22:58;17.30;96.30
24232;DHT22;12364;47.810;8.810;2023-05-20T09:25:25;17.40;96.40
24232;DHT22;12364;47.810;8.810;2023-05-20T09:27:52;17.40;96.30
24232;DHT22;12364;47.810;8.810;2023-05-20T09:30:19;17.50;96.20
24232;DHT22;12364;47.810;8.810;2023-05-20T09:33:20;17.50;96.20
24232;DHT22;12364;47.810;8.810;2023-05-20T09:35:40;17.50;96.30
24232;DHT22;12364;47.810;8.810;2023-05-20T09:38:07;17.60;96.40
24232;DHT22;12364;47.810;8.810;2023-05-20T09:40:35;17.60;96.20
24232;DHT22;12364;47.810;8.810;2023-05-20T09:43:06;17.60;96.30
24232;DHT22;12364;47.810;8.810;2023-05-20T09:45:33;17.70;96.40
24232;DHT22;12364;47.810;8.810;2023-05-20T09:48:01;17.70;96.00
24232;DHT22;12364;47.810;8.810;2023-05-20T09:50:28;17.70;96.00
24232;DHT22;12364;47.810;8.810;2023-05-20T09:52:56;17.60;96.00
24232;DHT22;12364;47.810;8.810;2023-05-20T09:55:27;17.60;96.10
24232;DHT22;12364;47.810;8.810;2023-05-20T09:57:55;17.60;96.00
24232;DHT22;12364;47.810;8.810;2023-05-20T10:00:23;17.60;95.90
24232;DHT22;12364;47.810;8.810;2023-05-20T10:02:50;17.60;95.80
24232;DHT22;12364;47.810;8.810;2023-05-20T10:05:19;17.60;95.70
24232;DHT22;12364;47.810;8.810;2023-05-20T10:10:33;17.60;96.10
24232;DHT22;12364;47.810;8.810;2023-05-20T10:15:55;17.60;95.90
24232;DHT22;12364;47.810;8.810;2023-05-20T10:18:55;17.60;95.60
24232;DHT22;12364;47.810;8.810;2023-05-20T10:21:24;17.60;95.60
24232;DHT22;12364;47.810;8.810;2023-05-20T10:23:51;17.60;95.40
24232;DHT22;12364;47.810;8.810;2023-05-20T10:26:18;17.80;95.60
24232;DHT22;12364;47.810;8.810;2023-05-20T10:28:47;17.70;95.70
24232;DHT22;12364;47.810;8.810;2023-05-20T10:31:15;17.80;95.70
24232;DHT22;12364;47.810;8.810;2023-05-20T10:33:44;17.90;95.80
24232;DHT22;12364;47.810;8.810;2023-05-20T10:36:26;17.80;95.50
24232;DHT22;12364;47.810;8.810;2023-05-20T10:38:54;17.90;95.70
24232;DHT22;12364;47.810;8.810;2023-05-20T10:41:26;17.90;95.70
24232;DHT22;12364;47.810;8.810;2023-05-20T10:44:03;18.00;95.80
24232;DHT22;12364;47.810;8.810;2023-05-20T10:46:30;18.00;95.50
24232;DHT22;12364;47.810;8.810;2023-05-20T10:49:17;18.10;95.30
24232;DHT22;12364;47.810;8.810;2023-05-20T10:51:50;18.20;95.80
24232;DHT22;12364;47.810;8.810;2023-05-20T10:54:17;18.30;95.80
24232;DHT22;12364;47.810;8.810;2023-05-20T10:56:51;18.40;95.60
24232;DHT22;12364;47.810;8.810;2023-05-20T10:59:18;18.40;95.40
24232;DHT22;12364;47.810;8.810;2023-05-20T11:01:47;18.50;95.20
24232;DHT22;12364;47.810;8.810;2023-05-20T11:04:15;18.50;95.10
24232;DHT22;12364;47.810;8.810;2023-05-20T11:06:49;18.40;95.20
24232;DHT22;12364;47.810;8.810;2023-05-20T11:09:17;18.40;95.20
24232;DHT22;12364;47.810;8.810;2023-05-20T11:11:44;18.40;94.80
24232;DHT22;12364;47.810;8.810;2023-05-20T11:14:11;18.40;94.90
24232;DHT22;12364;47.810;8.810;2023-05-20T11:16:44;18.40;95.20
24232;DHT22;12364;47.810;8.810;2023-05-20T11:19:14;18.40;95.00
24232;DHT22;12364;47.810;8.810;2023-05-20T11:21:42;18.50;94.90
24232;DHT22;12364;47.810;8.810;2023-05-20T11:24:10;18.70;94.90
24232;DHT22;12364;47.810;8.810;2023-05-20T11:26:38;18.50;94.90
24232;DHT22;12364;47.810;8.810;2023-05-20T11:29:05;18.50;94.80
24232;DHT22;12364;47.810;8.810;2023-05-20T11:31:32;18.60;95.10
24232;DHT22;12364;47.810;8.810;2023-05-20T11:33:59;18.60;95.10
24232;DHT22;12364;47.810;8.810;2023-05-20T11:36:30;18.70;95.00
24232;DHT22;12364;47.810;8.810;2023-05-20T11:38:58;18.90;94.90
24232;DHT22;12364;47.810;8.810;2023-05-20T11:41:26;18.80;94.60
24232;DHT22;12364;47.810;8.810;2023-05-20T11:43:56;18.80;94.60
24232;DHT22;12364;47.810;8.810;2023-05-20T11:46:24;18.90;94.70
24232;DHT22;12364;47.810;8.810;2023-05-20T11:48:54;18.90;94.90
24232;DHT22;12364;47.810;8.810;2023-05-20T11:51:22;19.00;94.90
24232;DHT22;12364;47.810;8.810;2023-05-20T11:53:50;19.00;94.80
24232;DHT22;12364;47.810;8.810;2023-05-20T11:56:17;19.10;94.80
24232;DHT22;12364;47.810;8.810;2023-05-20T11:58:44;19.20;94.90
24232;DHT22;12364;47.810;8.810;2023-05-20T12:01:11;19.20;94.70
24232;DHT22;12364;47.810;8.810;2023-05-20T12:03:48;19.20;94.50
24232;DHT22;12364;47.810;8.810;2023-05-20T12:06:16;19.30;94.30
24232;DHT22;12364;47.810;8.810;2023-05-20T12:08:43;19.30;94.40
24232;DHT22;12364;47.810;8.810;2023-05-20T12:11:10;19.30;94.40
24232;DHT22;12364;47.810;8.810;2023-05-20T12:13:37;19.40;94.40
24232;DHT22;12364;47.810;8.810;2023-05-20T12:16:04;19.40;94.50
24232;DHT22;12364;47.810;8.810;2023-05-20T12:18:32;19.50;94.70
24232;DHT22;12364;47.810;8.810;2023-05-20T12:20:59;19.50;94.20
24232;DHT22;12364;47.810;8.810;2023-05-20T12:23:26;19.50;94.30
24232;DHT22;12364;47.810;8.810;2023-05-20T12:25:56;19.50;94.30
24232;DHT22;12364;47.810;8.810;2023-05-20T12:28:23;19.50;94.20
24232;DHT22;12364;47.810;8.810;2023-05-20T12:30:50;19.60;94.70
24232;DHT22;12364;47.810;8.810;2023-05-20T12:33:17;19.60;94.40
24232;DHT22;12364;47.810;8.810;2023-05-20T12:35:46;19.80;94.20
24232;DHT22;12364;47.810;8.810;2023-05-20T12:38:13;19.70;94.20
24232;DHT22;12364;47.810;8.810;2023-05-20T12:40:40;19.70;94.30
24232;DHT22;12364;47.810;8.810;2023-05-20T12:43:07;19.80;94.30
24232;DHT22;12364;47.810;8.810;2023-05-20T12:45:34;19.80;94.20
24232;DHT22;12364;47.810;8.810;2023-05-20T12:48:01;19.90;94.10
24232;DHT22;12364;47.810;8.810;2023-05-20T12:50:28;19.80;94.30
24232;DHT22;12364;47.810;8.810;2023-05-20T12:52:55;19.90;93.90
24232;DHT22;12364;47.810;8.810;2023-05-20T12:55:23;19.90;94.20
24232;DHT22;12364;47.810;8.810;2023-05-20T12:57:50;19.90;94.20
24232;DHT22;12364;47.810;8.810;2023-05-20T13:00:17;19.90;94.10
24232;DHT22;12364;47.810;8.810;2023-05-20T13:02:44;19.90;93.80
24232;DHT22;12364;47.810;8.810;2023-05-20T13:05:12;19.90;93.90
24232;DHT22;12364;47.810;8.810;2023-05-20T13:07:39;20.00;94.10
24232;DHT22;12364;47.810;8.810;2023-05-20T13:10:06;20.00;94.00
24232;DHT22;12364;47.810;8.810;2023-05-20T13:12:34;20.10;94.10
24232;DHT22;12364;47.810;8.810;2023-05-20T13:15:01;20.10;93.80
24232;DHT22;12364;47.810;8.810;2023-05-20T13:17:28;20.20;94.00
24232;DHT22;12364;47.810;8.810;2023-05-20T13:19:55;20.20;94.00
24232;DHT22;12364;47.810;8.810;2023-05-20T13:22:22;20.20;94.00
24232;DHT22;12364;47.810;8.810;2023-05-20T13:24:49;20.30;94.20
24232;DHT22;12364;47.810;8.810;2023-05-20T13:27:16;20.30;94.00
24232;DHT22;12364;47.810;8.810;2023-05-20T13:29:43;20.40;94.00
24232;DHT22;12364;47.810;8.810;2023-05-20T13:32:11;20.40;93.90
24232;DHT22;12364;47.810;8.810;2023-05-20T13:34:38;20.40;93.60
24232;DHT22;12364;47.810;8.810;2023-05-20T13:37:05;20.40;93.30
24232;DHT22;12364;47.810;8.810;2023-05-20T13:39:32;20.50;93.40
24232;DHT22;12364;47.810;8.810;2023-05-20T13:41:59;20.40;93.50
24232;DHT22;12364;47.810;8.810;2023-05-20T13:44:26;20.40;93.60
24232;DHT22;12364;47.810;8.810;2023-05-20T13:46:53;20.70;93.90
24232;DHT22;12364;47.810;8.810;2023-05-20T13:49:20;20.50;93.60
24232;DHT22;12364;47.810;8.810;2023-05-20T13:51:47;20.60;93.50
24232;DHT22;12364;47.810;8.810;2023-05-20T13:54:14;20.60;93.40
24232;DHT22;12364;47.810;8.810;2023-05-20T13:56:41;20.60;93.10
24232;DHT22;12364;47.810;8.810;2023-05-20T13:59:08;20.60;92.90
24232;DHT22;12364;47.810;8.810;2023-05-20T14:01:35;20.60;92.90
24232;DHT22;12364;47.810;8.810;2023-05-20T14:04:07;20.80;92.80
24232;DHT22;12364;47.810;8.810;2023-05-20T14:06:34;20.70;93.20
24232;DHT22;12364;47.810;8.810;2023-05-20T14:09:01;20.70;93.00
24232;DHT22;12364;47.810;8.810;2023-05-20T14:11:28;20.80;92.80
24232;DHT22;12364;47.810;8.810;2023-05-20T14:13:55;20.80;93.00
24232;DHT22;12364;47.810;8.810;2023-05-20T14:16:22;20.80;92.80
24232;DHT22;12364;47.810;8.810;2023-05-20T14:18:49;20.90;93.10
24232;DHT22;12364;47.810;8.810;2023-05-20T14:21:16;21.10;92.90
24232;DHT22;12364;47.810;8.810;2023-05-20T14:23:45;21.00;93.00
24232;DHT22;12364;47.810;8.810;2023-05-20T14:26:12;20.90;93.10
24232;DHT22;12364;47.810;8.810;2023-05-20T14:28:39;20.90;92.90
24232;DHT22;12364;47.810;8.810;2023-05-20T14:31:06;20.90;93.00
24232;DHT22;12364;47.810;8.810;2023-05-20T14:33:35;21.00;93.00
24232;DHT22;12364;47.810;8.810;2023-05-20T14:36:02;21.00;92.90
24232;DHT22;12364;47.810;8.810;2023-05-20T14:38:29;21.10;93.10
24232;DHT22;12364;47.810;8.810;2023-05-20T14:40:57;21.10;93.10
24232;DHT22;12364;47.810;8.810;2023-05-20T14:43:24;21.20;93.10
24232;DHT22;12364;47.810;8.810;2023-05-20T14:45:51;21.20;93.00
24232;DHT22;12364;47.810;8.810;2023-05-20T14:48:18;21.20;92.90
24232;DHT22;12364;47.810;8.810;2023-05-20T14:50:45;21.20;92.90
24232;DHT22;12364;47.810;8.810;2023-05-20T14:53:15;21.20;93.00
24232;DHT22;12364;47.810;8.810;2023-05-20T14:55:42;21.20;93.00
24232;DHT22;12364;47.810;8.810;2023-05-20T14:58:09;21.30;93.10
24232;DHT22;12364;47.810;8.810;2023-05-20T15:00:37;21.30;93.10
24232;DHT22;12364;47.810;8.810;2023-05-20T15:03:04;21.30;93.40
24232;DHT22;12364;47.810;8.810;2023-05-20T15:05:32;21.40;93.30
24232;DHT22;12364;47.810;8.810;2023-05-20T15:07:59;21.40;93.40
24232;DHT22;12364;47.810;8.810;2023-05-20T15:10:26;21.40;93.20
24232;DHT22;12364;47.810;8.810;2023-05-20T15:12:53;21.40;93.00
24232;DHT22;12364;47.810;8.810;2023-05-20T15:15:20;21.60;93.10
24232;DHT22;12364;47.810;8.810;2023-05-20T15:17:48;21.40;93.00
24232;DHT22;12364;47.810;8.810;2023-05-20T15:20:15;21.50;93.20
24232;DHT22;12364;47.810;8.810;2023-05-20T15:22:42;21.50;93.30
24232;DHT22;12364;47.810;8.810;2023-05-20T15:25:13;21.50;93.00
24232;DHT22;12364;47.810;8.810;2023-05-20T15:27:40;21.40;92.90
24232;DHT22;12364;47.810;8.810;2023-05-20T15:30:08;21.40;92.90
24232;DHT22;12364;47.810;8.810;2023-05-20T15:32:35;21.40;92.90
24232;DHT22;12364;47.810;8.810;2023-05-20T15:35:02;21.40;93.00
24232;DHT22;12364;47.810;8.810;2023-05-20T15:37:30;21.40;93.10
24232;DHT22;12364;47.810;8.810;2023-05-20T15:39:57;21.50;93.00
24232;DHT22;12364;47.810;8.810;2023-05-20T15:42:24;21.50;92.90
24232;DHT22;12364;47.810;8.810;2023-05-20T15:44:51;21.50;92.90
24232;DHT22;12364;47.810;8.810;2023-05-20T15:47:18;21.60;93.00
24232;DHT22;12364;47.810;8.810;2023-05-20T15:49:45;21.60;93.00
24232;DHT22;12364;47.810;8.810;2023-05-20T15:52:12;21.60;92.70
24232;DHT22;12364;47.810;8.810;2023-05-20T15:54:39;21.60;92.90
24232;DHT22;12364;47.810;8.810;2023-05-20T15:57:06;21.60;93.20
24232;DHT22;12364;47.810;8.810;2023-05-20T15:59:33;21.70;93.30
24232;DHT22;12364;47.810;8.810;2023-05-20T16:02:00;21.70;93.40
24232;DHT22;12364;47.810;8.810;2023-05-20T16:04:28;21.70;93.60
24232;DHT22;12364;47.810;8.810;2023-05-20T16:06:55;21.80;93.50
24232;DHT22;12364;47.810;8.810;2023-05-20T16:09:22;21.80;93.20
24232;DHT22;12364;47.810;8.810;2023-05-20T16:11:49;21.80;93.40
24232;DHT22;12364;47.810;8.810;2023-05-20T16:14:16;21.90;93.50
24232;DHT22;12364;47.810;8.810;2023-05-20T16:16:43;21.80;93.10
24232;DHT22;12364;47.810;8.810;2023-05-20T16:19:10;21.90;93.30
24232;DHT22;12364;47.810;8.810;2023-05-20T16:21:37;21.90;93.40
24232;DHT22;12364;47.810;8.810;2023-05-20T16:24:04;21.90;93.20
24232;DHT22;12364;47.810;8.810;2023-05-20T16:26:32;21.90;93.20
24232;DHT22;12364;47.810;8.810;2023-05-20T16:28:59;21.90;93.20
24232;DHT22;12364;47.810;8.810;2023-05-20T16:31:26;21.90;93.00
24232;DHT22;12364;47.810;8.810;2023-05-20T16:33:53;21.90;93.40
24232;DHT22;12364;47.810;8.810;2023-05-20T16:36:20;21.90;93.40
24232;DHT22;12364;47.810;8.810;2023-05-20T16:38:47;21.90;93.20
24232;DHT22;12364;47.810;8.810;2023-05-20T16:41:14;22.00;93.40
24232;DHT22;12364;47.810;8.810;2023-05-20T16:43:42;22.00;93.70
24232;DHT22;12364;47.810;8.810;2023-05-20T16:46:09;22.00;93.40
24232;DHT22;12364;47.810;8.810;2023-05-20T16:48:38;22.00;93.20
24232;DHT22;12364;47.810;8.810;2023-05-20T16:51:05;22.00;93.30
24232;DHT22;12364;47.810;8.810;2023-05-20T16:53:32;22.00;93.20
24232;DHT22;12364;47.810;8.810;2023-05-20T16:55:59;22.00;93.30
24232;DHT22;12364;47.810;8.810;2023-05-20T16:58:26;22.10;93.20
24232;DHT22;12364;47.810;8.810;2023-05-20T17:00:53;22.10;93.30
24232;DHT22;12364;47.810;8.810;2023-05-20T17:03:21;22.10;93.20
24232;DHT22;12364;47.810;8.810;2023-05-20T17:05:48;22.00;93.30
24232;DHT22;12364;47.810;8.810;2023-05-20T17:08:15;22.00;93.40
24232;DHT22;12364;47.810;8.810;2023-05-20T17:10:42;22.00;93.40
24232;DHT22;12364;47.810;8.810;2023-05-20T17:13:09;22.10;93.50
24232;DHT22;12364;47.810;8.810;2023-05-20T17:15:36;22.10;93.50
24232;DHT22;12364;47.810;8.810;2023-05-20T17:18:03;22.10;93.70
24232;DHT22;12364;47.810;8.810;2023-05-20T17:20:30;22.10;93.60
24232;DHT22;12364;47.810;8.810;2023-05-20T17:22:58;22.10;93.50
24232;DHT22;12364;47.810;8.810;2023-05-20T17:25:25;22.10;93.50
24232;DHT22;12364;47.810;8.810;2023-05-20T17:27:52;22.10;93.60
24232;DHT22;12364;47.810;8.810;2023-05-20T17:30:19;22.10;93.50
24232;DHT22;12364;47.810;8.810;2023-05-20T17:32:46;22.10;93.50
24232;DHT22;12364;47.810;8.810;2023-05-20T17:35:14;22.10;93.40
24232;DHT22;12364;47.810;8.810;2023-05-20T17:37:41;22.10;93.60
24232;DHT22;12364;47.810;8.810;2023-05-20T17:40:08;22.10;93.50
24232;DHT22;12364;47.810;8.810;2023-05-20T17:42:36;22.10;93.80
24232;DHT22;12364;47.810;8.810;2023-05-20T17:45:03;22.10;93.80
24232;DHT22;12364;47.810;8.810;2023-05-20T17:47:30;22.10;93.80
24232;DHT22;12364;47.810;8.810;2023-05-20T17:49:57;22.10;93.80
24232;DHT22;12364;47.810;8.810;2023-05-20T17:52:25;22.10;93.90
24232;DHT22;12364;47.810;8.810;2023-05-20T17:54:53;22.10;94.10
24232;DHT22;12364;47.810;8.810;2023-05-20T17:57:20;22.10;94.30
24232;DHT22;12364;47.810;8.810;2023-05-20T17:59:47;22.00;94.40
24232;DHT22;12364;47.810;8.810;2023-05-20T18:02:15;22.10;94.90
24232;DHT22;12364;47.810;8.810;2023-05-20T18:04:42;22.10;95.10
24232;DHT22;12364;47.810;8.810;2023-05-20T18:07:10;22.00;95.40
24232;DHT22;12364;47.810;8.810;2023-05-20T18:09:37;22.00;95.50
24232;DHT22;12364;47.810;8.810;2023-05-20T18:12:05;22.00;95.40
24232;DHT22;12364;47.810;8.810;2023-05-20T18:14:32;22.00;95.40
24232;DHT22;12364;47.810;8.810;2023-05-20T18:16:59;22.00;95.40
24232;DHT22;12364;47.810;8.810;2023-05-20T18:19:26;22.10;95.40
24232;DHT22;12364;47.810;8.810;2023-05-20T18:21:54;22.00;95.30
24232;DHT22;12364;47.810;8.810;2023-05-20T18:24:21;22.00;95.30
24232;DHT22;12364;47.810;8.810;2023-05-20T18:26:48;22.00;95.10
24232;DHT22;12364;47.810;8.810;2023-05-20T18:29:15;21.90;95.10
24232;DHT22;12364;47.810;8.810;2023-05-20T18:31:42;21.90;95.00
24232;DHT22;12364;47.810;8.810;2023-05-20T18:34:09;21.90;95.00
24232;DHT22;12364;47.810;8.810;2023-05-20T18:36:36;21.90;94.90
24232;DHT22;12364;47.810;8.810;2023-05-20T18:39:03;21.80;94.90
24232;DHT22;12364;47.810;8.810;2023-05-20T18:41:31;21.80;95.10
24232;DHT22;12364;47.810;8.810;2023-05-20T18:44:15;21.80;95.10
24232;DHT22;12364;47.810;8.810;2023-05-20T18:46:43;22.00;95.00
24232;DHT22;12364;47.810;8.810;2023-05-20T18:49:10;21.80;94.80
24232;DHT22;12364;47.810;8.810;2023-05-20T18:51:38;21.70;94.90
24232;DHT22;12364;47.810;8.810;2023-05-20T18:54:05;21.70;95.00
24232;DHT22;12364;47.810;8.810;2023-05-20T18:56:32;21.70;95.00
24232;DHT22;12364;47.810;8.810;2023-05-20T18:59:00;21.60;95.00
24232;DHT22;12364;47.810;8.810;2023-05-20T19:01:27;21.60;95.00
24232;DHT22;12364;47.810;8.810;2023-05-20T19:03:54;21.50;94.80
24232;DHT22;12364;47.810;8.810;2023-05-20T19:06:21;21.50;94.90
24232;DHT22;12364;47.810;8.810;2023-05-20T19:08:48;21.50;95.10
24232;DHT22;12364;47.810;8.810;2023-05-20T19:11:15;21.50;94.70
24232;DHT22;12364;47.810;8.810;2023-05-20T19:13:42;21.50;94.80
24232;DHT22;12364;47.810;8.810;2023-05-20T19:16:09;21.40;94.70
24232;DHT22;12364;47.810;8.810;2023-05-20T19:18:36;21.40;94.60
24232;DHT22;12364;47.810;8.810;2023-05-20T19:21:04;21.40;94.70
24232;DHT22;12364;47.810;8.810;2023-05-20T19:23:31;21.40;94.70
24232;DHT22;12364;47.810;8.810;2023-05-20T19:25:58;21.40;94.60
24232;DHT22;12364;47.810;8.810;2023-05-20T19:28:25;21.40;94.60
24232;DHT22;12364;47.810;8.810;2023-05-20T19:30:52;21.40;94.60
24232;DHT22;12364;47.810;8.810;2023-05-20T19:33:19;21.40;94.60
24232;DHT22;12364;47.810;8.810;2023-05-20T19:35:47;21.40;94.30
24232;DHT22;12364;47.810;8.810;2023-05-20T19:38:14;21.30;94.20
24232;DHT22;12364;47.810;8.810;2023-05-20T19:40:44;21.30;94.20
24232;DHT22;12364;47.810;8.810;2023-05-20T19:43:11;21.30;94.00
24232;DHT22;12364;47.810;8.810;2023-05-20T19:45:38;21.30;94.10
24232;DHT22;12364;47.810;8.810;2023-05-20T19:48:05;21.30;94.00
24232;DHT22;12364;47.810;8.810;2023-05-20T19:50:32;21.30;94.10
24232;DHT22;12364;47.810;8.810;2023-05-20T19:52:59;21.30;94.00
24232;DHT22;12364;47.810;8.810;2023-05-20T19:55:29;21.40;93.90
24232;DHT22;12364;47.810;8.810;2023-05-20T19:57:56;21.30;94.00
24232;DHT22;12364;47.810;8.810;2023-05-20T20:00:23;21.30;94.00
24232;DHT22;12364;47.810;8.810;2023-05-20T20:02:50;21.30;93.90
24232;DHT22;12364;47.810;8.810;2023-05-20T20:05:17;21.30;93.90
24232;DHT22;12364;47.810;8.810;2023-05-20T20:07:46;21.50;94.00
24232;DHT22;12364;47.810;8.810;2023-05-20T20:10:13;21.40;93.90